| time (UTC) | temp F | wind direction | speed knots | gust knots | rain 1hr in | rain 24hr in | rain mn in | humidity % | barometer mb |
| 20260510093705 | 43 | 0 | 0.9 | 1.7 | 0.01 | 0.23 | 0.05 | 92 | 1002.1 |
| 20260510093206 | 43 | 3 | 0.9 | 2.6 | 0.01 | 0.23 | 0.05 | 93 | 1002.1 |
| 20260510083707 | 45 | 171 | 0.9 | 1.7 | 0.00 | 0.22 | 0.04 | 94 | 1001.7 |
| 20260510080706 | 46 | 117 | 0.9 | 2.6 | 0.00 | 0.22 | 0.04 | 95 | 1001.3 |
| 20260510080206 | 46 | 134 | 0.9 | 4.3 | 0.00 | 0.22 | 0.04 | 95 | 1001.3 |
| 20260510073206 | 47 | 0 | 0.9 | 2.6 | 0.00 | 0.22 | 0.04 | 96 | 1000.8 |
| 20260510070706 | 48 | 0 | 0.0 | 0.9 | 0.00 | 0.22 | 0.04 | 97 | 1000.7 |
| 20260510063707 | 48 | 0 | 0.0 | 1.7 | 0.00 | 0.22 | 0.04 | 97 | 1000.4 |
| 20260510063206 | 48 | 0 | 0.9 | 2.6 | 0.00 | 0.22 | 0.04 | 97 | 1000.2 |
| 20260510060206 | 48 | 345 | 0.9 | 1.7 | 0.00 | 0.22 | 0.04 | 97 | 1000.2 |
| 20260510050706 | 49 | 311 | 0.9 | 0.9 | 0.03 | 0.22 | 0.04 | 96 | 999.7 |
| 20260510050206 | 49 | 0 | 0.0 | 4.3 | 0.04 | 0.22 | 0.04 | 96 | 999.8 |
| 20260510040205 | 49 | 80 | 1.7 | 7.0 | 0.00 | 0.18 | 0.00 | 93 | 999.5 |
| 20260510033706 | 51 | 247 | 0.9 | 2.6 | 0.02 | 0.02 | 0.02 | 87 | 999.7 |
| 20260510033206 | 51 | 164 | 0.9 | 2.6 | 0.01 | 0.01 | 0.01 | 85 | 999.5 |
| 20260510030705 | 51 | 204 | 0.9 | 2.6 | 0.00 | 0.00 | 0.00 | 83 | 999.0 |
| 20260510030206 | 51 | 225 | 1.7 | 6.1 | 0.00 | 0.00 | 0.00 | 82 | 999.1 |
| 20260510023705 | 52 | 346 | 0.9 | 4.3 | 0.00 | 0.00 | 0.00 | 77 | 999.8 |
| 20260510023205 | 52 | 148 | 1.7 | 7.0 | 0.00 | 0.00 | 0.00 | 77 | 999.9 |
| 20260510020705 | 53 | 200 | 1.7 | 2.6 | 0.00 | 0.00 | 0.00 | 76 | 1000.0 |
| 20260510020205 | 53 | 299 | 0.9 | 7.8 | 0.00 | 0.00 | 0.00 | 75 | 1000.0 |
| 20260510013705 | 54 | 0 | 1.7 | 2.6 | 0.00 | 0.00 | 0.00 | 72 | 1000.6 |
| 20260510010706 | 55 | 279 | 0.9 | 2.6 | 0.00 | 0.00 | 0.00 | 66 | 1000.8 |
| 20260510010206 | 56 | 278 | 0.9 | 5.2 | 0.00 | 0.00 | 0.00 | 65 | 1000.7 |
| 20260510003705 | 56 | 190 | 1.7 | 6.1 | 0.00 | 0.00 | 0.00 | 60 | 1000.7 |
| 20260510003206 | 56 | 331 | 0.9 | 7.0 | 0.00 | 0.00 | 0.00 | 58 | 1000.7 |
| 20260510000705 | 57 | 332 | 0.9 | 1.7 | 0.00 | 0.00 | 0.00 | 53 | 1000.7 |
| 20260510000205 | 57 | 196 | 0.9 | 5.2 | 0.00 | 0.00 | 0.00 | 52 | 1000.7 |
| 20260509233705 | 58 | 19 | 0.0 | 0.9 | 0.00 | 0.00 | 0.00 | 49 | 1000.6 |
| 20260509233205 | 58 | 19 | 0.9 | 5.2 | 0.00 | 0.00 | 0.00 | 47 | 1000.5 |
| 20260509230705 | 60 | 76 | 1.7 | 5.2 | 0.00 | 0.00 | 0.00 | 42 | 1000.4 |
| 20260509230205 | 60 | 189 | 0.9 | 5.2 | 0.00 | 0.00 | 0.00 | 41 | 1000.4 |
| 20260509223705 | 62 | 116 | 1.7 | 7.0 | 0.00 | 0.00 | 0.00 | 37 | 1000.3 |
| 20260509223205 | 62 | 172 | 1.7 | 4.3 | 0.00 | 0.00 | 0.00 | 36 | 1000.4 |
| 20260509220705 | 64 | 108 | 2.6 | 7.0 | 0.00 | 0.00 | 0.00 | 30 | 1000.7 |
| 20260509220205 | 64 | 244 | 1.7 | 7.8 | 0.00 | 0.00 | 0.00 | 29 | 1000.7 |
| 20260509213705 | 65 | 172 | 0.9 | 4.3 | 0.00 | 0.00 | 0.00 | 27 | 1000.7 |
| 20260509213205 | 65 | 143 | 1.7 | 8.7 | 0.00 | 0.00 | 0.00 | 27 | 1000.8 |
| 20260509210205 | 64 | 304 | 0.9 | 7.8 | 0.00 | 0.00 | 0.00 | 30 | 1001.0 |
| 20260509203705 | 64 | 355 | 2.6 | 5.2 | 0.00 | 0.00 | 0.00 | 28 | 1001.0 |
| 20260509203205 | 64 | 108 | 1.7 | 10.4 | 0.00 | 0.00 | 0.00 | 30 | 1001.1 |
| 20260509200705 | 64 | 191 | 1.7 | 10.4 | 0.00 | 0.00 | 0.00 | 28 | 1001.3 |
| 20260509193204 | 64 | 298 | 2.6 | 8.7 | 0.00 | 0.00 | 0.00 | 29 | 1001.8 |
| 20260509190705 | 65 | 318 | 2.6 | 10.4 | 0.00 | 0.00 | 0.00 | 31 | 1002.3 |
| 20260509190205 | 65 | 286 | 2.6 | 7.8 | 0.00 | 0.00 | 0.00 | 30 | 1002.4 |
| 20260509183205 | 64 | 37 | 2.6 | 7.0 | 0.00 | 0.00 | 0.00 | 31 | 1002.8 |
| 20260509180706 | 63 | 185 | 3.5 | 12.2 | 0.00 | 0.00 | 0.00 | 30 | 1003.0 |
| 20260509180205 | 63 | 103 | 2.6 | 7.8 | 0.00 | 0.00 | 0.00 | 30 | 1003.0 |
| 20260509173204 | 62 | 21 | 1.7 | 10.4 | 0.00 | 0.00 | 0.00 | 36 | 1003.3 |
| 20260509170706 | 61 | 233 | 1.7 | 7.8 | 0.00 | 0.00 | 0.00 | 35 | 1003.8 |
| 20260509170206 | 61 | 109 | 2.6 | 10.4 | 0.00 | 0.00 | 0.00 | 35 | 1003.8 |
| 20260509163706 | 61 | 49 | 2.6 | 6.1 | 0.00 | 0.00 | 0.00 | 35 | 1004.2 |
| 20260509160707 | 60 | 26 | 1.7 | 4.3 | 0.00 | 0.00 | 0.00 | 34 | 1005.0 |
| 20260509160206 | 60 | 123 | 2.6 | 7.8 | 0.00 | 0.00 | 0.00 | 34 | 1005.0 |
| 20260509153706 | 59 | 110 | 1.7 | 2.6 | 0.00 | 0.00 | 0.00 | 38 | 1005.4 |
| 20260509153207 | 58 | 316 | 2.6 | 7.0 | 0.00 | 0.00 | 0.00 | 37 | 1005.3 |
| 20260509150706 | 58 | 116 | 1.7 | 7.8 | 0.00 | 0.00 | 0.00 | 40 | 1005.8 |
| 20260509143706 | 55 | 181 | 2.6 | 7.8 | 0.00 | 0.00 | 0.00 | 45 | 1005.9 |
| 20260509143206 | 54 | 9 | 2.6 | 7.8 | 0.00 | 0.00 | 0.00 | 48 | 1005.8 |
| 20260509140706 | 52 | 238 | 0.9 | 1.7 | 0.00 | 0.00 | 0.00 | 51 | 1006.1 |
| 20260509140206 | 51 | 200 | 0.9 | 2.6 | 0.00 | 0.00 | 0.00 | 52 | 1006.2 |
| 20260509133706 | 50 | 215 | 0.9 | 2.6 | 0.00 | 0.00 | 0.00 | 54 | 1006.4 |
| 20260509133206 | 50 | 134 | 1.7 | 5.2 | 0.00 | 0.00 | 0.00 | 54 | 1006.3 |
| 20260509130706 | 47 | 55 | 1.7 | 2.6 | 0.00 | 0.00 | 0.00 | 58 | 1006.4 |
| 20260509130206 | 47 | 133 | 1.7 | 5.2 | 0.00 | 0.00 | 0.00 | 59 | 1006.5 |
| 20260509123706 | 45 | 197 | 0.0 | 2.6 | 0.00 | 0.00 | 0.00 | 65 | 1006.7 |
| 20260509120706 | 44 | 169 | 1.7 | 5.2 | 0.00 | 0.00 | 0.00 | 66 | 1006.8 |
| 20260509120206 | 43 | 48 | 0.9 | 5.2 | 0.00 | 0.00 | 0.00 | 67 | 1006.7 |
| 20260509113706 | 43 | 354 | 0.0 | 1.7 | 0.00 | 0.00 | 0.00 | 69 | 1006.5 |
| 20260509113206 | 42 | 350 | 0.9 | 2.6 | 0.00 | 0.00 | 0.00 | 70 | 1006.5 |
| 20260509110706 | 40 | 70 | 0.0 | 0.9 | 0.00 | 0.00 | 0.00 | 76 | 1006.4 |
| 20260509110206 | 40 | 70 | 0.0 | 1.7 | 0.00 | 0.00 | 0.00 | 76 | 1006.4 |
| 20260509103705 | 40 | 70 | 0.0 | 0.0 | 0.00 | 0.00 | 0.00 | 79 | 1006.3 |
| 20260509100205 | 40 | 71 | 0.0 | 1.7 | 0.00 | 0.00 | 0.00 | 79 | 1006.2 |